VSV887 UAAA-UUEE
Flight info
| Callsign | VSV887 |
|---|---|
| Flight time | N/A |
| Altitude | 34000 |
| Route | TIPSA1A TIPSA M610 TOMGO L147 TIROK/K0843F360 L147 AKB M199 MULTA M162 PODUT T750 MOF T173 BMK T750 OKSUD T787 OTKOL T784 LARNO T291 URIDU L158 DIMGI |
| Aircraft | B738/M-SDE2E3FGHIRWXY/LB1 |
Departure
| Time | 2026-04-25 12:06 |
|---|---|
| Airport | Almaty International Airport (UAAA) |
Arrival
| Time | N/A |
|---|---|
| Airport | Sheremetyevo International Airport (UUEE) |
| Time | Latitude | Longitude | Altitude | Speed | Heading |
|---|---|---|---|---|---|
| 2026-04-25 11:45 | 43.34744 | 77.02088 | 2228 ft | 0 kts | 2° |
| 2026-04-25 11:58 | 43.34745 | 77.02088 | 2228 ft | 1 kts | 2° |
| 2026-04-25 11:58 | 43.34774 | 77.02092 | 2225 ft | 7 kts | 13° |
| 2026-04-25 11:58 | 43.34790 | 77.02154 | 2225 ft | 9 kts | 94° |
| 2026-04-25 11:59 | 43.34784 | 77.02262 | 2224 ft | 14 kts | 94° |
| 2026-04-25 11:59 | 43.34777 | 77.02410 | 2228 ft | 17 kts | 94° |
| 2026-04-25 11:59 | 43.34777 | 77.02580 | 2226 ft | 18 kts | 75° |
| 2026-04-25 12:00 | 43.34905 | 77.02856 | 2222 ft | 17 kts | 55° |
| 2026-04-25 12:00 | 43.34968 | 77.02984 | 2224 ft | 16 kts | 56° |
| 2026-04-25 12:00 | 43.35110 | 77.03271 | 2228 ft | 21 kts | 56° |
| 2026-04-25 12:01 | 43.35202 | 77.03456 | 2224 ft | 24 kts | 56° |
| 2026-04-25 12:01 | 43.35292 | 77.03638 | 2225 ft | 23 kts | 56° |
| 2026-04-25 12:01 | 43.35380 | 77.03814 | 2222 ft | 22 kts | 56° |
| 2026-04-25 12:01 | 43.35465 | 77.03985 | 2221 ft | 21 kts | 55° |
| 2026-04-25 12:02 | 43.35625 | 77.04312 | 2222 ft | 20 kts | 56° |
| 2026-04-25 12:02 | 43.35703 | 77.04469 | 2224 ft | 19 kts | 56° |
| 2026-04-25 12:02 | 43.35778 | 77.04621 | 2223 ft | 19 kts | 56° |
| 2026-04-25 12:03 | 43.35859 | 77.04785 | 2221 ft | 22 kts | 56° |
| 2026-04-25 12:03 | 43.35950 | 77.04972 | 2223 ft | 24 kts | 56° |
| 2026-04-25 12:03 | 43.35976 | 77.05062 | 2225 ft | 5 kts | 102° |
| 2026-04-25 12:03 | 43.35960 | 77.05091 | 2224 ft | 0 kts | 143° |
| 2026-04-25 12:05 | 43.35955 | 77.05095 | 2224 ft | 5 kts | 146° |
| 2026-04-25 12:05 | 43.35894 | 77.05151 | 2224 ft | 15 kts | 146° |
| 2026-04-25 12:05 | 43.35821 | 77.05170 | 2226 ft | 9 kts | 231° |
| 2026-04-25 12:05 | 43.35792 | 77.05111 | 2224 ft | 33 kts | 236° |
| 2026-04-25 12:06 | 43.35518 | 77.04557 | 2230 ft | 106 kts | 236° |
| 2026-04-25 12:06 | 43.34979 | 77.03470 | 2226 ft | 167 kts | 236° |
| 2026-04-25 12:06 | 43.34257 | 77.01976 | 2532 ft | 196 kts | 237° |
| 2026-04-25 12:06 | 43.33487 | 77.00384 | 3288 ft | 209 kts | 237° |
| 2026-04-25 12:07 | 43.32683 | 76.98699 | 4095 ft | 208 kts | 237° |
| 2026-04-25 12:07 | 43.31928 | 76.97042 | 4926 ft | 205 kts | 238° |
| 2026-04-25 12:07 | 43.31181 | 76.95283 | 5130 ft | 228 kts | 249° |
| 2026-04-25 12:07 | 43.30994 | 76.93035 | 5319 ft | 252 kts | 282° |
| 2026-04-25 12:08 | 43.31813 | 76.90838 | 5667 ft | 269 kts | 315° |
| 2026-04-25 12:08 | 43.33371 | 76.89385 | 6393 ft | 273 kts | 332° |
| 2026-04-25 12:08 | 43.35095 | 76.88255 | 7148 ft | 276 kts | 334° |
| 2026-04-25 12:08 | 43.36855 | 76.87150 | 7840 ft | 280 kts | 333° |
| 2026-04-25 12:09 | 43.38617 | 76.86003 | 8587 ft | 282 kts | 332° |
| 2026-04-25 12:09 | 43.40386 | 76.84812 | 9353 ft | 284 kts | 331° |
| 2026-04-25 12:09 | 43.42159 | 76.83594 | 9828 ft | 285 kts | 331° |
| 2026-04-25 12:09 | 43.43936 | 76.82364 | 9983 ft | 289 kts | 331° |
| 2026-04-25 12:10 | 43.45574 | 76.80793 | 9966 ft | 286 kts | 309° |
| 2026-04-25 12:10 | 43.46643 | 76.78479 | 10076 ft | 292 kts | 292° |
| 2026-04-25 12:10 | 43.47444 | 76.75800 | 10251 ft | 314 kts | 290° |
| 2026-04-25 12:10 | 43.48271 | 76.72903 | 10465 ft | 333 kts | 290° |
| 2026-04-25 12:11 | 43.49131 | 76.69895 | 10976 ft | 341 kts | 291° |
| 2026-04-25 12:11 | 43.50000 | 76.66895 | 11624 ft | 343 kts | 291° |
| 2026-04-25 12:11 | 43.50895 | 76.63840 | 12303 ft | 345 kts | 291° |
| 2026-04-25 12:11 | 43.51801 | 76.60760 | 12945 ft | 349 kts | 291° |
| 2026-04-25 12:12 | 43.52719 | 76.57640 | 13590 ft | 352 kts | 291° |
| 2026-04-25 12:12 | 43.53330 | 76.55559 | 14008 ft | 354 kts | 291° |
| 2026-04-25 12:12 | 43.54568 | 76.51321 | 14808 ft | 357 kts | 291° |
| 2026-04-25 12:12 | 43.55498 | 76.48127 | 15433 ft | 359 kts | 291° |
| 2026-04-25 12:13 | 43.56430 | 76.44920 | 16031 ft | 362 kts | 291° |
| 2026-04-25 12:13 | 43.57372 | 76.41680 | 16617 ft | 365 kts | 291° |
| 2026-04-25 12:13 | 43.58308 | 76.38455 | 17212 ft | 367 kts | 291° |
| 2026-04-25 12:13 | 43.59260 | 76.35172 | 17789 ft | 370 kts | 291° |
| 2026-04-25 12:14 | 43.60083 | 76.31806 | 18354 ft | 373 kts | 280° |
| 2026-04-25 12:14 | 43.60333 | 76.28237 | 18845 ft | 375 kts | 274° |
| 2026-04-25 12:14 | 43.60436 | 76.25802 | 19176 ft | 377 kts | 274° |
| 2026-04-25 12:14 | 43.60577 | 76.22167 | 19646 ft | 380 kts | 274° |
| 2026-04-25 12:15 | 43.60719 | 76.18551 | 20100 ft | 383 kts | 274° |
| 2026-04-25 12:15 | 43.60872 | 76.14864 | 20578 ft | 386 kts | 274° |
| 2026-04-25 12:15 | 43.61034 | 76.11155 | 21044 ft | 389 kts | 275° |
| 2026-04-25 12:15 | 43.61201 | 76.07427 | 21489 ft | 392 kts | 275° |
| 2026-04-25 12:16 | 43.61373 | 76.03660 | 21935 ft | 394 kts | 275° |
| 2026-04-25 12:16 | 43.61547 | 75.99864 | 22374 ft | 397 kts | 275° |
| 2026-04-25 12:16 | 43.61721 | 75.96048 | 22810 ft | 400 kts | 275° |
| 2026-04-25 12:16 | 43.61896 | 75.92214 | 23245 ft | 402 kts | 275° |
| 2026-04-25 12:17 | 43.62071 | 75.88327 | 23655 ft | 405 kts | 275° |
| 2026-04-25 12:17 | 43.62245 | 75.84437 | 24026 ft | 407 kts | 275° |
| 2026-04-25 12:17 | 43.62418 | 75.80529 | 24393 ft | 409 kts | 275° |
| 2026-04-25 12:17 | 43.62591 | 75.76601 | 24768 ft | 410 kts | 275° |
| 2026-04-25 12:18 | 43.62762 | 75.72667 | 25121 ft | 412 kts | 275° |
| 2026-04-25 12:18 | 43.62934 | 75.68706 | 25472 ft | 414 kts | 275° |
| 2026-04-25 12:18 | 43.63102 | 75.64781 | 25808 ft | 416 kts | 275° |
| 2026-04-25 12:18 | 43.63273 | 75.60777 | 26139 ft | 417 kts | 275° |
| 2026-04-25 12:19 | 43.63555 | 75.54107 | 26700 ft | 420 kts | 275° |
| 2026-04-25 12:19 | 43.63778 | 75.48710 | 27131 ft | 422 kts | 275° |
| 2026-04-25 12:19 | 43.63942 | 75.44660 | 27444 ft | 424 kts | 275° |
| 2026-04-25 12:20 | 43.64105 | 75.40592 | 27752 ft | 425 kts | 275° |
| 2026-04-25 12:20 | 43.64267 | 75.36511 | 28044 ft | 427 kts | 275° |
| 2026-04-25 12:20 | 43.64429 | 75.32407 | 28322 ft | 429 kts | 275° |
| 2026-04-25 12:20 | 43.64589 | 75.28318 | 28607 ft | 430 kts | 275° |
| 2026-04-25 12:21 | 43.64750 | 75.24163 | 28901 ft | 432 kts | 275° |
| 2026-04-25 12:21 | 43.64909 | 75.20013 | 29215 ft | 432 kts | 275° |
| 2026-04-25 12:21 | 43.65066 | 75.15888 | 29639 ft | 430 kts | 275° |
| 2026-04-25 12:21 | 43.65220 | 75.11777 | 30124 ft | 427 kts | 275° |
| 2026-04-25 12:22 | 43.65373 | 75.07674 | 30484 ft | 426 kts | 275° |
| 2026-04-25 12:22 | 43.65523 | 75.03603 | 30755 ft | 426 kts | 275° |
| 2026-04-25 12:22 | 43.65674 | 74.99509 | 30993 ft | 427 kts | 274° |
| 2026-04-25 12:22 | 43.65823 | 74.95407 | 31287 ft | 426 kts | 274° |
| 2026-04-25 12:23 | 43.65969 | 74.91336 | 31597 ft | 425 kts | 274° |
| 2026-04-25 12:23 | 43.66114 | 74.87258 | 31872 ft | 425 kts | 274° |
| 2026-04-25 12:23 | 43.66258 | 74.83178 | 32119 ft | 425 kts | 274° |
| 2026-04-25 12:23 | 43.66400 | 74.79093 | 32381 ft | 425 kts | 274° |
| 2026-04-25 12:24 | 43.66540 | 74.75034 | 32658 ft | 424 kts | 274° |
| 2026-04-25 12:24 | 43.66679 | 74.70967 | 32912 ft | 424 kts | 274° |
| 2026-04-25 12:24 | 43.66815 | 74.66933 | 33148 ft | 424 kts | 274° |
| 2026-04-25 12:24 | 43.66951 | 74.62876 | 33391 ft | 424 kts | 274° |
| 2026-04-25 12:25 | 43.67086 | 74.58796 | 33631 ft | 424 kts | 274° |
| 2026-04-25 12:25 | 43.67219 | 74.54721 | 33888 ft | 424 kts | 274° |
| 2026-04-25 12:25 | 43.67351 | 74.50652 | 34101 ft | 424 kts | 273° |
| 2026-04-25 12:26 | 43.67611 | 74.42475 | 34096 ft | 426 kts | 273° |
| 2026-04-25 12:26 | 43.67864 | 74.34337 | 34085 ft | 422 kts | 273° |
| 2026-04-25 12:27 | 43.68109 | 74.26315 | 34080 ft | 419 kts | 273° |
| 2026-04-25 12:27 | 43.68350 | 74.18228 | 34081 ft | 418 kts | 273° |
| 2026-04-25 12:28 | 43.68590 | 74.10260 | 34075 ft | 417 kts | 273° |
| 2026-04-25 12:28 | 43.68829 | 74.02231 | 34073 ft | 418 kts | 273° |
| 2026-04-25 12:29 | 43.69063 | 73.94177 | 34067 ft | 420 kts | 273° |
| 2026-04-25 12:29 | 43.69292 | 73.86090 | 34062 ft | 422 kts | 272° |
| 2026-04-25 12:30 | 43.69722 | 73.78008 | 34049 ft | 423 kts | 283° |
| 2026-04-25 12:30 | 43.71930 | 73.70322 | 34055 ft | 425 kts | 302° |
| 2026-04-25 12:31 | 43.75430 | 73.63686 | 34060 ft | 427 kts | 306° |
| 2026-04-25 12:31 | 43.78800 | 73.57557 | 34055 ft | 427 kts | 306° |
| 2026-04-25 12:32 | 43.79374 | 73.56505 | 34052 ft | 428 kts | 306° |
| 2026-04-25 12:32 | 43.81849 | 73.51944 | 34047 ft | 428 kts | 306° |
| 2026-04-25 12:33 | 43.85408 | 73.45311 | 34045 ft | 427 kts | 305° |